Las Lenas/Los Molles, Argentina
Current Conditions -  °F | °C
As of 5:00 PM on Thursday 23 Oct 2014 (Local Time) from SCIC Reporting Station
Clear Clear  
Wind Chill: 29°   Ceiling: Unl
Heat Index: 29°   Visibility: 6mi
Dew Point: 12°   Wind: 6mph
Humidity: 35%   Direction: 190°S
Pressure: 29.94"   Gusts: NA
Location:  34.97°S, 68.65°W
Report Text: SCIC 232000Z 19005KT CAVOK 29/12 Q1014
Loading
Personal Weather Stations






























Interactive Weather Map
Tropical Storm Tracking
New forecast layout! Learn more

10-Day Weather Forecast

Advertisements
Track Severe Weather on mobile